Airfield :
LOGIN :

Register | Disclaimer

   EN    FR    IT 

 










Legend :    VFR   Marginal VFR   IFR   Intensive IFR   Very Intensive IFR
Visi :
Ceiling :
>= 8 km
>= 3000ft
5 to 8 km
1000 to 3000 ft
1500m to 5 km
500 to 1000 ft
800 to 1500m
200 to 500 ft
< 800m
< 200 ft
Symbols :   Thunderstorms  Fog  Heavy snow  Heavy precipitations  Wind > 20 kt
SIGMETs :     Misc.  Thunderstorms  Icing  Turbulence  Mountain Waves  Volcanic Ashes






- Airport Elevation : 587 ft
- IATA code : XCR


LFOK - Chalons Vatry

CURRENT METAR :
  • 161130Z AUTO 04003KT 010V090 8000 FEW004 10/10 Q1022 NOSIG

EXPIRED METARs :
  • 161100Z AUTO VRB03KT 5000 BR VV/// 09/09 Q1022 BECMG SCT040
  • 161030Z AUTO VRB02KT 0350 R10/0550N R28/0450D FG VV/// 09/09 Q1022 BECMG 9999 NSW SCT040
  • 161000Z AUTO 01003KT 330V060 0250 0200 R10/0300N R28/0325N FG VV/// 08/08 Q1022 BECMG 9999 NSW SCT040
  • 160930Z AUTO VRB03KT 0200 0150 R10/0200N R28/0350N FG VV/// 08/08 Q1022 BECMG 9999 NSW SCT040
  • 160900Z AUTO 05003KT 0200 0150 R10/0200N R28/0350N FG VV/// 07/07 Q1022 BECMG 9999 NSW SCT040

TAF TAF LFOK
Valid from the 16 at 12:00 until the 17 at 12:00 UTC


161100Z 1612/1712 02005KT 9999 SCT040
PROB30 1705/1708 2000 BCFG



MET'MAP, your aeronautical weather chart ! - Copyright ORBIFLY December 2007 - Disclaimer

ORBIFLY MET'MAP TEAM :

Programming & Development : Alexandra Zaïnal
Concept & original design : Baudouin d'Aumeries
Assistance for programming : Marc-Olivier Méhu
Technical & hardware support : Manuel Goepfert

Contact : metmap@orbifly.com




SOURCES & CREDITS :

   NOAA